Time;durP1;ratioP1;P1;durP2;ratioP2;P2;SDS_P1;SDS_P2;PMS_P1;PMS_P2;Temp;Humidity;BMP_temperature;BMP_pressure;BME280_temperature;BME280_humidity;BME280_pressure;Samples;Min_cycle;Max_cycle;Signal;HPM_P1;HPM_P2
2022/12/05 00:01:10;;;;;;;20.00;9.18;;;;;;;;;;4958848;29;20039;-84
2022/12/05 00:03:35;;;;;;;16.52;8.35;;;;;;;;;;4958793;29;20420;-84
2022/12/05 00:06:02;;;;;;;21.50;12.68;;;;;;;;;;4959395;29;20102;-83
2022/12/05 00:08:28;;;;;;;26.85;14.43;;;;;;;;;;4958955;29;20043;-83
2022/12/05 00:10:53;;;;;;;23.35;11.32;;;;;;;;;;4959530;29;20420;-82
2022/12/05 00:13:19;;;;;;;16.35;8.68;;;;;;;;;;4941425;29;20066;-83
2022/12/05 00:15:44;;;;;;;19.13;9.18;;;;;;;;;;4958915;29;20043;-83
2022/12/05 00:18:10;;;;;;;21.05;10.52;;;;;;;;;;4959320;29;20036;-83
2022/12/05 00:20:35;;;;;;;19.13;9.05;;;;;;;;;;4958763;29;20031;-84
2022/12/05 00:23:01;;;;;;;21.38;10.05;;;;;;;;;;4958522;29;20043;-84
2022/12/05 00:25:27;;;;;;;17.45;8.85;;;;;;;;;;4959233;29;20042;-84
2022/12/05 00:27:52;;;;;;;17.13;8.60;;;;;;;;;;4959528;29;20046;-84
2022/12/05 00:30:18;;;;;;;23.20;13.38;;;;;;;;;;4959272;29;20035;-84
2022/12/05 00:32:43;;;;;;;15.98;8.60;;;;;;;;;;4959770;29;20035;-84
2022/12/05 00:35:09;;;;;;;18.08;8.73;;;;;;;;;;4959552;29;20789;-84
2022/12/05 00:37:35;;;;;;;16.75;8.63;;;;;;;;;;4941675;29;20038;-85
2022/12/05 00:40:00;;;;;;;15.93;8.32;;;;;;;;;;4958852;29;20035;-84
2022/12/05 00:42:26;;;;;;;18.23;9.07;;;;;;;;;;4958738;29;20511;-84
2022/12/05 00:44:51;;;;;;;15.52;7.97;;;;;;;;;;4958623;29;20031;-84
2022/12/05 00:47:17;;;;;;;16.52;8.60;;;;;;;;;;4942122;29;20515;-84
2022/12/05 00:49:42;;;;;;;15.60;8.07;;;;;;;;;;4959229;29;20043;-85
2022/12/05 00:52:07;;;;;;;18.77;8.15;;;;;;;;;;4944111;29;20039;-84
2022/12/05 00:54:33;;;;;;;18.83;9.07;;;;;;;;;;4962093;29;20047;-84
2022/12/05 00:56:58;;;;;;;16.08;8.35;;;;;;;;;;4961623;29;20042;-85
2022/12/05 00:59:24;;;;;;;16.45;7.72;;;;;;;;;;4962407;29;20031;-85
2022/12/05 01:01:50;;;;;;;15.15;7.28;;;;;;;;;;4962277;29;20059;-85
2022/12/05 01:04:23;;;;;;;14.05;7.38;;;;;;;;;;4963302;29;20484;-84
2022/12/05 01:06:52;;;;;;;14.43;7.82;;;;;;;;;;4962266;29;20122;-84
2022/12/05 01:09:19;;;;;;;14.68;8.10;;;;;;;;;;4962098;29;20445;-84
2022/12/05 01:11:45;;;;;;;16.95;7.95;;;;;;;;;;4944262;29;20393;-85
2022/12/05 01:14:13;;;;;;;14.63;7.60;;;;;;;;;;4961439;29;20497;-84
2022/12/05 01:16:41;;;;;;;15.00;7.45;;;;;;;;;;4960995;29;20134;-84
2022/12/05 01:19:11;;;;;;;14.57;7.72;;;;;;;;;;4962019;29;20043;-84
2022/12/05 01:21:36;;;;;;;15.15;7.75;;;;;;;;;;4929022;29;20143;-84
2022/12/05 01:24:02;;;;;;;12.25;6.55;;;;;;;;;;4961963;29;20055;-84
2022/12/05 01:26:28;;;;;;;12.63;6.90;;;;;;;;;;4961806;29;20035;-84
2022/12/05 01:28:54;;;;;;;13.02;6.68;;;;;;;;;;4961934;29;20138;-84
2022/12/05 01:31:27;;;;;;;13.90;6.80;;;;;;;;;;4944803;29;20031;-84
2022/12/05 01:33:54;;;;;;;17.70;8.38;;;;;;;;;;4961603;29;20231;-84
2022/12/05 01:36:21;;;;;;;14.13;7.70;;;;;;;;;;4962212;29;20500;-84
2022/12/05 01:38:47;;;;;;;13.90;7.75;;;;;;;;;;4944191;29;20063;-84
2022/12/05 01:41:18;;;;;;;14.32;7.57;;;;;;;;;;4944988;29;20031;-84
2022/12/05 01:43:53;;;;;;;12.77;6.93;;;;;;;;;;4944559;29;20038;-84
2022/12/05 01:46:18;;;;;;;12.10;6.32;;;;;;;;;;4944796;29;20032;-84
2022/12/05 01:48:44;;;;;;;14.43;6.95;;;;;;;;;;4961753;29;20050;-84
2022/12/05 01:51:10;;;;;;;19.00;6.93;;;;;;;;;;4961088;29;20035;-84
2022/12/05 01:53:36;;;;;;;18.42;7.43;;;;;;;;;;4961308;29;20079;-84
2022/12/05 01:56:02;;;;;;;14.15;7.53;;;;;;;;;;4961488;29;20456;-83
2022/12/05 01:58:33;;;;;;;22.30;7.43;;;;;;;;;;4960933;29;20039;-84
2022/12/05 02:00:59;;;;;;;29.10;7.55;;;;;;;;;;4960829;29;20063;-83
2022/12/05 02:03:24;;;;;;;14.07;6.57;;;;;;;;;;4959446;28;20043;-84
2022/12/05 02:05:53;;;;;;;18.23;7.32;;;;;;;;;;4961610;29;20545;-84
2022/12/05 02:08:18;;;;;;;12.40;6.95;;;;;;;;;;4961116;29;20067;-85
2022/12/05 02:10:54;;;;;;;27.27;7.30;;;;;;;;;;4960049;29;20043;-85
2022/12/05 02:13:40;;;;;;;29.90;7.03;;;;;;;;;;4944004;29;20400;-85
2022/12/05 02:16:35;;;;;;;18.08;8.18;;;;;;;;;;4927466;29;20130;-84
2022/12/05 02:19:36;;;;;;;12.35;6.60;;;;;;;;;;4944268;29;20051;-84
2022/12/05 02:22:36;;;;;;;13.95;6.32;;;;;;;;;;4927146;29;20126;-83
2022/12/05 02:25:02;;;;;;;15.40;6.97;;;;;;;;;;4960479;29;20039;-84
2022/12/05 02:27:44;;;;;;;20.02;7.50;;;;;;;;;;4943321;29;20082;-85
2022/12/05 02:30:20;;;;;;;14.80;7.40;;;;;;;;;;4960561;29;20067;-85
2022/12/05 02:32:48;;;;;;;16.42;7.32;;;;;;;;;;4942590;29;20139;-85
2022/12/05 02:35:28;;;;;;;17.92;7.53;;;;;;;;;;4927694;29;20039;-84
2022/12/05 02:38:30;;;;;;;18.85;7.53;;;;;;;;;;4961371;29;20031;-84
2022/12/05 02:41:03;;;;;;;26.23;7.32;;;;;;;;;;4960798;29;20066;-84
2022/12/05 02:43:36;;;;;;;17.15;7.45;;;;;;;;;;4943040;29;20448;-85
2022/12/05 02:46:08;;;;;;;14.80;7.30;;;;;;;;;;4960253;29;20046;-85
2022/12/05 02:48:36;;;;;;;29.63;6.93;;;;;;;;;;4960372;29;20043;-83
2022/12/05 02:51:04;;;;;;;19.90;6.60;;;;;;;;;;4961019;29;20027;-83
2022/12/05 02:53:30;;;;;;;14.70;6.60;;;;;;;;;;4960668;29;20109;-84
2022/12/05 02:55:56;;;;;;;14.15;6.70;;;;;;;;;;4960129;29;20062;-84
2022/12/05 02:58:32;;;;;;;17.98;7.00;;;;;;;;;;4959873;29;20034;-85
2022/12/05 03:00:58;;;;;;;15.63;7.10;;;;;;;;;;4943163;29;20043;-84
2022/12/05 03:03:25;;;;;;;20.60;6.53;;;;;;;;;;4959630;29;20027;-84
2022/12/05 03:05:57;;;;;;;12.88;7.15;;;;;;;;;;4927079;29;20039;-83
2022/12/05 03:08:28;;;;;;;13.13;6.40;;;;;;;;;;4942296;29;20527;-84
2022/12/05 03:10:55;;;;;;;13.48;7.13;;;;;;;;;;4960585;29;20043;-84
2022/12/05 03:13:33;;;;;;;21.35;7.53;;;;;;;;;;4943040;28;20054;-84
2022/12/05 03:16:04;;;;;;;15.93;7.10;;;;;;;;;;4943195;29;20055;-84
2022/12/05 03:18:35;;;;;;;11.23;6.32;;;;;;;;;;4959950;29;20049;-84
2022/12/05 03:21:20;;;;;;;10.88;5.82;;;;;;;;;;4960057;29;20023;-84
2022/12/05 03:24:00;;;;;;;11.63;6.28;;;;;;;;;;4942342;29;20039;-84
2022/12/05 03:26:49;;;;;;;19.20;6.68;;;;;;;;;;4960381;29;20039;-84
2022/12/05 03:29:33;;;;;;;15.57;6.53;;;;;;;;;;4942558;29;20043;-84
2022/12/05 03:32:17;;;;;;;11.07;6.07;;;;;;;;;;4959509;29;20074;-84
2022/12/05 03:34:58;;;;;;;12.88;6.30;;;;;;;;;;4960456;29;20042;-84
2022/12/05 03:37:40;;;;;;;12.63;6.38;;;;;;;;;;4960027;29;20075;-84
2022/12/05 03:40:30;;;;;;;14.27;6.32;;;;;;;;;;4960405;29;20035;-84
2022/12/05 03:43:24;;;;;;;12.85;6.57;;;;;;;;;;4959414;29;20110;-84
2022/12/05 03:45:58;;;;;;;13.98;6.72;;;;;;;;;;4959280;29;20047;-84
2022/12/05 03:48:36;;;;;;;15.50;6.60;;;;;;;;;;4926860;29;20074;-84
2022/12/05 03:51:05;;;;;;;11.50;6.15;;;;;;;;;;4959759;29;20035;-84
2022/12/05 03:53:36;;;;;;;14.80;6.47;;;;;;;;;;4926821;29;20111;-84
2022/12/05 03:56:13;;;;;;;21.65;7.82;;;;;;;;;;4920613;29;20039;-84
2022/12/05 03:58:46;;;;;;;15.40;6.65;;;;;;;;;;4904064;29;20036;-84
2022/12/05 04:01:15;;;;;;;18.27;6.53;;;;;;;;;;4920506;29;20118;-83
2022/12/05 04:03:50;;;;;;;12.23;6.35;;;;;;;;;;4904282;29;20036;-83
2022/12/05 04:06:30;;;;;;;12.13;6.82;;;;;;;;;;4919939;29;20060;-83
2022/12/05 04:09:04;;;;;;;11.60;6.22;;;;;;;;;;4904707;29;20134;-83
2022/12/05 04:11:31;;;;;;;;;;;;;;;;;;4903980;29;20048;-83
2022/12/05 04:14:04;;;;;;;13.77;6.10;;;;;;;;;;4903853;29;19915;-82
2022/12/05 04:17:04;;;;;;;20.38;7.15;;;;;;;;;;4920107;29;20064;-83
2022/12/05 04:22:29;;;;;;;14.80;7.05;;;;;;;;;;4920304;29;20042;-84
2022/12/05 04:27:43;;;;;;;10.85;6.43;;;;;;;;;;4923977;29;20466;-83
2022/12/05 04:30:15;;;;;;;13.43;7.13;;;;;;;;;;4924436;29;20040;-83
2022/12/05 04:32:40;;;;;;;11.80;6.38;;;;;;;;;;4907436;29;20497;-83
2022/12/05 04:35:14;;;;;;;14.30;7.05;;;;;;;;;;4923968;29;20087;-83
2022/12/05 04:37:43;;;;;;;12.18;6.75;;;;;;;;;;4924448;29;20054;-83
2022/12/05 04:40:13;;;;;;;12.38;6.50;;;;;;;;;;4924775;29;20115;-83
2022/12/05 04:42:41;;;;;;;13.52;6.97;;;;;;;;;;4924119;29;20028;-84
2022/12/05 04:45:10;;;;;;;17.30;6.85;;;;;;;;;;4924589;29;20083;-85
2022/12/05 04:47:40;;;;;;;13.38;7.32;;;;;;;;;;4924386;29;20482;-85
2022/12/05 04:50:09;;;;;;;13.52;6.90;;;;;;;;;;4907945;29;20506;-85
2022/12/05 04:52:36;;;;;;;15.55;7.47;;;;;;;;;;4924713;29;20040;-84
2022/12/05 04:55:06;;;;;;;11.75;6.53;;;;;;;;;;4923914;29;20039;-84
2022/12/05 04:58:06;;;;;;;14.15;7.40;;;;;;;;;;4923602;29;20044;-84
2022/12/05 05:00:37;;;;;;;12.95;7.05;;;;;;;;;;4924065;29;20063;-84
2022/12/05 05:03:11;;;;;;;18.20;7.78;;;;;;;;;;4923599;29;20040;-85
2022/12/05 05:05:38;;;;;;;16.15;7.70;;;;;;;;;;4924011;29;20032;-84
2022/12/05 05:08:03;;;;;;;17.33;7.68;;;;;;;;;;4922876;29;20089;-85
2022/12/05 05:10:40;;;;;;;15.10;7.88;;;;;;;;;;4922775;29;20040;-84
2022/12/05 05:13:06;;;;;;;17.85;7.18;;;;;;;;;;4923386;29;20047;-84
2022/12/05 05:15:31;;;;;;;14.30;7.82;;;;;;;;;;4923540;29;20028;-84
2022/12/05 05:17:57;;;;;;;15.10;7.30;;;;;;;;;;4923684;29;20036;-85
2022/12/05 05:20:22;;;;;;;11.80;6.40;;;;;;;;;;4922766;29;20040;-85
2022/12/05 05:22:49;;;;;;;11.05;6.28;;;;;;;;;;4906056;29;20401;-85
2022/12/05 05:25:15;;;;;;;11.98;6.28;;;;;;;;;;4923291;29;20036;-85
2022/12/05 05:27:40;;;;;;;10.02;6.00;;;;;;;;;;4923015;29;20051;-84
2022/12/05 05:30:06;;;;;;;11.57;5.97;;;;;;;;;;4923744;29;20043;-84
2022/12/05 05:32:32;;;;;;;11.38;5.97;;;;;;;;;;4922917;29;20028;-84
2022/12/05 05:34:57;;;;;;;11.52;6.47;;;;;;;;;;4923094;29;20501;-82
2022/12/05 05:37:23;;;;;;;12.85;6.25;;;;;;;;;;4890210;29;20095;-85
2022/12/05 05:39:48;;;;;;;11.32;6.00;;;;;;;;;;4905864;29;20040;-85
2022/12/05 05:42:14;;;;;;;10.55;6.10;;;;;;;;;;4905651;29;20493;-85
2022/12/05 05:44:39;;;;;;;9.63;6.00;;;;;;;;;;4923002;29;20050;-84
2022/12/05 05:47:04;;;;;;;8.30;5.13;;;;;;;;;;4922745;29;20043;-84
2022/12/05 05:49:30;;;;;;;10.18;5.47;;;;;;;;;;4923186;29;20494;-84
2022/12/05 05:51:55;;;;;;;9.82;5.45;;;;;;;;;;4923116;29;20449;-84
2022/12/05 05:54:21;;;;;;;10.07;5.43;;;;;;;;;;4923021;29;20028;-84
2022/12/05 05:56:46;;;;;;;10.77;6.05;;;;;;;;;;4922592;29;20406;-84
2022/12/05 05:59:12;;;;;;;10.30;5.80;;;;;;;;;;4890049;29;20127;-84
2022/12/05 06:01:37;;;;;;;12.10;6.03;;;;;;;;;;4904861;29;20039;-84
2022/12/05 06:04:03;;;;;;;11.80;6.60;;;;;;;;;;4921952;29;20043;-84
2022/12/05 06:06:28;;;;;;;10.55;5.68;;;;;;;;;;4889944;29;20044;-84
2022/12/05 06:08:54;;;;;;;11.23;6.28;;;;;;;;;;4922573;29;20040;-84
2022/12/05 06:11:22;;;;;;;10.98;5.50;;;;;;;;;;4923144;29;20518;-84
2022/12/05 06:13:47;;;;;;;9.95;5.85;;;;;;;;;;4906126;29;20044;-83
2022/12/05 06:16:15;;;;;;;13.35;5.60;;;;;;;;;;4922010;29;20040;-84
2022/12/05 06:18:41;;;;;;;10.35;5.68;;;;;;;;;;4922739;29;20091;-84
2022/12/05 06:21:07;;;;;;;25.80;14.32;;;;;;;;;;4922825;29;20040;-85
2022/12/05 06:23:37;;;;;;;19.42;10.88;;;;;;;;;;4923051;29;20079;-84
2022/12/05 06:26:04;;;;;;;20.67;12.10;;;;;;;;;;4922354;29;20076;-84
2022/12/05 06:28:30;;;;;;;24.52;14.70;;;;;;;;;;4923113;29;20071;-84
2022/12/05 06:30:56;;;;;;;13.02;7.63;;;;;;;;;;4922850;29;20041;-84
2022/12/05 06:33:21;;;;;;;9.48;6.00;;;;;;;;;;4906179;29;20047;-84
2022/12/05 06:35:47;;;;;;;10.57;6.05;;;;;;;;;;4905345;29;20049;-84
2022/12/05 06:38:12;;;;;;;10.02;5.82;;;;;;;;;;4922696;29;20116;-83
2022/12/05 06:40:43;;;;;;;10.85;6.15;;;;;;;;;;4921964;29;20508;-83
2022/12/05 06:43:09;;;;;;;10.20;5.88;;;;;;;;;;4921411;29;20115;-83
2022/12/05 06:45:37;;;;;;;8.82;5.50;;;;;;;;;;4922200;29;20493;-83
2022/12/05 06:48:02;;;;;;;34.63;17.35;;;;;;;;;;4921433;29;20051;-83
2022/12/05 06:50:28;;;;;;;69.80;31.65;;;;;;;;;;4921249;29;20040;-83
2022/12/05 06:52:53;;;;;;;13.00;7.35;;;;;;;;;;4921470;29;20043;-83
2022/12/05 06:55:19;;;;;;;10.57;6.38;;;;;;;;;;4921626;29;20434;-83
2022/12/05 06:57:44;;;;;;;10.95;6.40;;;;;;;;;;4921652;29;20044;-83
2022/12/05 07:02:54;;;;;;;15.75;8.68;;;;;;;;;;4943328;23;20024;-86
2022/12/05 07:05:20;;;;;;;21.05;11.40;;;;;;;;;;4899991;29;20398;-85
2022/12/05 07:07:45;;;;;;;11.75;6.75;;;;;;;;;;4900700;29;20111;-82
2022/12/05 07:10:11;;;;;;;10.07;6.65;;;;;;;;;;4917466;29;20044;-83
2022/12/05 07:12:36;;;;;;;13.07;7.72;;;;;;;;;;4930575;29;20086;-85
2022/12/05 07:15:02;;;;;;;14.93;8.70;;;;;;;;;;4918950;29;20047;-84
2022/12/05 07:17:28;;;;;;;11.20;6.65;;;;;;;;;;4919689;29;20629;-84
2022/12/05 07:19:53;;;;;;;20.85;10.00;;;;;;;;;;4919703;29;20580;-84
2022/12/05 07:22:21;;;;;;;12.88;6.20;;;;;;;;;;4919100;29;20035;-85
2022/12/05 07:24:47;;;;;;;21.15;11.27;;;;;;;;;;4907877;29;20095;-84
2022/12/05 07:27:14;;;;;;;15.45;8.60;;;;;;;;;;4891035;29;20465;-85
2022/12/05 07:29:40;;;;;;;10.60;6.28;;;;;;;;;;4906483;29;20482;-85
2022/12/05 07:32:06;;;;;;;10.68;6.40;;;;;;;;;;4923893;29;20046;-85
2022/12/05 07:34:31;;;;;;;9.02;5.82;;;;;;;;;;4907234;29;20095;-85
2022/12/05 07:36:57;;;;;;;8.95;5.70;;;;;;;;;;4921236;29;20409;-83
2022/12/05 07:39:22;;;;;;;10.02;6.05;;;;;;;;;;4925397;29;20036;-86
2022/12/05 07:41:48;;;;;;;12.07;7.03;;;;;;;;;;4904245;29;20375;-87
2022/12/05 07:44:15;;;;;;;12.05;6.22;;;;;;;;;;4885034;29;20246;-84
2022/12/05 07:46:41;;;;;;;8.13;5.28;;;;;;;;;;4884964;29;20044;-85
2022/12/05 07:49:07;;;;;;;9.60;5.80;;;;;;;;;;4906905;29;20051;-84
2022/12/05 07:51:32;;;;;;;10.48;6.00;;;;;;;;;;4918575;29;20066;-85
2022/12/05 07:53:58;;;;;;;9.63;6.30;;;;;;;;;;4920249;29;20032;-84
2022/12/05 07:56:24;;;;;;;10.07;6.35;;;;;;;;;;4920332;29;20036;-84
2022/12/05 07:58:50;;;;;;;10.85;6.25;;;;;;;;;;4902172;29;20047;-85
2022/12/05 08:01:20;;;;;;;10.65;5.78;;;;;;;;;;4927208;29;20053;-83
2022/12/05 08:03:46;;;;;;;10.70;6.13;;;;;;;;;;4891608;29;20036;-84
2022/12/05 08:06:14;;;;;;;9.80;6.07;;;;;;;;;;4910089;29;20028;-84
2022/12/05 08:08:40;;;;;;;10.48;5.40;;;;;;;;;;4908990;29;20071;-83
2022/12/05 08:11:14;;;;;;;8.93;5.53;;;;;;;;;;4900872;29;20080;-84
2022/12/05 08:13:40;;;;;;;7.90;5.43;;;;;;;;;;4900036;29;20056;-84
2022/12/05 08:16:10;;;;;;;9.48;5.57;;;;;;;;;;4899802;29;20449;-84
2022/12/05 08:18:36;;;;;;;12.07;6.15;;;;;;;;;;4916986;29;20040;-84
2022/12/05 08:21:07;;;;;;;9.85;6.00;;;;;;;;;;4916340;29;20028;-85
2022/12/05 08:23:34;;;;;;;9.35;5.50;;;;;;;;;;4899302;29;20032;-86
2022/12/05 08:26:04;;;;;;;16.40;9.65;;;;;;;;;;4917969;29;20464;-84
2022/12/05 08:28:31;;;;;;;11.57;6.70;;;;;;;;;;4926395;29;20044;-85
2022/12/05 08:31:15;;;;;;;10.20;6.20;;;;;;;;;;4918684;29;20048;-85
2022/12/05 08:33:41;;;;;;;9.77;5.88;;;;;;;;;;4903676;29;20070;-85
2022/12/05 08:36:09;;;;;;;9.05;5.38;;;;;;;;;;4920196;29;20123;-86
2022/12/05 08:38:36;;;;;;;8.60;5.50;;;;;;;;;;4920915;29;20066;-84
2022/12/05 08:41:03;;;;;;;9.02;5.50;;;;;;;;;;4921237;29;20091;-84
2022/12/05 08:43:29;;;;;;;8.73;5.45;;;;;;;;;;4924934;29;20040;-85
2022/12/05 08:45:55;;;;;;;8.65;5.40;;;;;;;;;;4901676;29;20100;-85
2022/12/05 08:48:21;;;;;;;8.85;5.72;;;;;;;;;;4901687;29;20497;-85
2022/12/05 08:50:46;;;;;;;8.80;5.70;;;;;;;;;;4919541;29;20041;-84
2022/12/05 08:53:12;;;;;;;10.52;6.85;;;;;;;;;;4918910;29;20572;-85
2022/12/05 08:55:37;;;;;;;8.57;5.70;;;;;;;;;;4901654;29;20040;-85
2022/12/05 08:58:03;;;;;;;9.15;5.45;;;;;;;;;;4918819;29;20036;-84
2022/12/05 09:00:29;;;;;;;9.25;5.53;;;;;;;;;;4902004;29;20040;-85
2022/12/05 09:02:57;;;;;;;8.95;6.45;;;;;;;;;;4918203;29;20036;-87
2022/12/05 09:05:23;;;;;;;10.88;7.03;;;;;;;;;;4918199;29;20035;-86
2022/12/05 09:07:49;;;;;;;13.63;7.28;;;;;;;;;;4917800;29;20028;-86
2022/12/05 09:10:15;;;;;;;11.75;6.38;;;;;;;;;;4917849;29;20043;-86
2022/12/05 09:12:40;;;;;;;10.27;6.38;;;;;;;;;;4902454;29;20028;-86
2022/12/05 09:15:07;;;;;;;12.50;6.47;;;;;;;;;;4904541;29;20446;-85
2022/12/05 09:17:33;;;;;;;10.52;6.88;;;;;;;;;;4921442;29;20059;-85
2022/12/05 09:19:58;;;;;;;12.68;6.80;;;;;;;;;;4921604;29;20115;-83
2022/12/05 09:22:24;;;;;;;9.52;6.25;;;;;;;;;;4920971;29;20123;-85
2022/12/05 09:24:49;;;;;;;13.05;7.00;;;;;;;;;;4903715;29;20692;-85
2022/12/05 09:27:15;;;;;;;11.23;7.07;;;;;;;;;;4921401;29;20118;-85
2022/12/05 09:29:42;;;;;;;11.77;6.88;;;;;;;;;;4920857;29;20028;-85
2022/12/05 09:32:08;;;;;;;12.05;7.15;;;;;;;;;;4903546;29;20036;-85
2022/12/05 09:34:33;;;;;;;9.82;6.38;;;;;;;;;;4920252;29;20385;-84
2022/12/05 09:37:00;;;;;;;11.02;6.80;;;;;;;;;;4919887;29;20040;-85
2022/12/05 09:39:27;;;;;;;10.23;6.57;;;;;;;;;;4920059;29;20067;-85
2022/12/05 09:42:07;;;;;;;12.18;7.07;;;;;;;;;;4928211;29;20028;-85
2022/12/05 09:45:02;;;;;;;12.25;6.65;;;;;;;;;;4911648;29;20040;-85
2022/12/05 09:47:34;;;;;;;12.65;6.55;;;;;;;;;;4921109;29;20032;-87
2022/12/05 09:50:23;;;;;;;10.80;6.68;;;;;;;;;;4904476;29;20064;-86
2022/12/05 09:53:01;;;;;;;10.73;6.60;;;;;;;;;;4935176;29;20047;-87
2022/12/05 09:55:52;;;;;;;11.07;6.53;;;;;;;;;;4920852;29;20044;-87
2022/12/05 09:58:21;;;;;;;11.07;6.85;;;;;;;;;;4920845;29;20054;-86
2022/12/05 10:00:50;;;;;;;11.45;7.15;;;;;;;;;;4920369;29;20044;-86
2022/12/05 10:03:37;;;;;;;11.88;7.10;;;;;;;;;;4920641;29;20231;-85
2022/12/05 10:06:20;;;;;;;9.65;5.80;;;;;;;;;;4903095;29;20438;-86
2022/12/05 10:09:10;;;;;;;10.55;6.90;;;;;;;;;;4919612;29;20582;-86
2022/12/05 10:11:43;;;;;;;10.75;6.07;;;;;;;;;;4919879;29;20036;-85
2022/12/05 10:14:17;;;;;;;10.48;6.82;;;;;;;;;;4919426;29;20036;-86
2022/12/05 10:16:53;;;;;;;9.85;6.20;;;;;;;;;;4920038;29;20064;-86
2022/12/05 10:19:29;;;;;;;11.10;6.32;;;;;;;;;;4903481;29;20028;-86
2022/12/05 10:22:01;;;;;;;19.15;8.75;;;;;;;;;;4920259;29;20084;-85
2022/12/05 10:24:36;;;;;;;17.27;8.60;;;;;;;;;;4919628;29;20123;-86
2022/12/05 10:27:06;;;;;;;12.05;6.75;;;;;;;;;;4921377;29;20492;-86
2022/12/05 10:29:42;;;;;;;10.93;6.80;;;;;;;;;;4889022;29;20039;-86
2022/12/05 10:32:55;;;;;;;13.65;7.15;;;;;;;;;;4921522;29;20059;-86
2022/12/05 10:35:35;;;;;;;10.00;6.20;;;;;;;;;;4918090;29;20047;-86
2022/12/05 10:38:09;;;;;;;10.57;6.55;;;;;;;;;;4905027;29;20384;-86
2022/12/05 10:40:42;;;;;;;10.68;6.95;;;;;;;;;;4905472;29;20039;-85
2022/12/05 10:43:10;;;;;;;10.52;6.50;;;;;;;;;;4922509;29;20094;-85
2022/12/05 10:45:44;;;;;;;10.23;6.38;;;;;;;;;;4923154;29;20408;-86
2022/12/05 10:48:12;;;;;;;10.95;6.22;;;;;;;;;;4909138;29;20039;-86
2022/12/05 10:50:39;;;;;;;11.95;6.43;;;;;;;;;;4885838;29;20491;-85
2022/12/05 10:53:05;;;;;;;10.10;5.65;;;;;;;;;;4932491;29;20036;-85
2022/12/05 10:55:35;;;;;;;9.57;5.80;;;;;;;;;;4921409;29;20059;-86
2022/12/05 10:58:16;;;;;;;8.82;5.68;;;;;;;;;;4931793;29;20465;-86
2022/12/05 11:00:45;;;;;;;13.35;6.88;;;;;;;;;;4905296;29;20093;-86
2022/12/05 11:03:27;;;;;;;9.25;5.72;;;;;;;;;;4923337;29;20512;-86
2022/12/05 11:05:55;;;;;;;9.13;5.53;;;;;;;;;;4922756;29;20062;-86
2022/12/05 11:08:23;;;;;;;9.98;6.15;;;;;;;;;;4922064;29;20044;-86
2022/12/05 11:11:00;;;;;;;14.77;7.05;;;;;;;;;;4905739;29;20556;-86
2022/12/05 11:13:25;;;;;;;9.70;6.20;;;;;;;;;;4921518;29;20060;-86
2022/12/05 11:15:51;;;;;;;8.45;5.25;;;;;;;;;;4904456;29;20146;-86
2022/12/05 11:18:29;;;;;;;7.28;4.68;;;;;;;;;;4921361;29;20044;-86
2022/12/05 11:21:06;;;;;;;12.32;5.05;;;;;;;;;;4921337;29;20039;-86
2022/12/05 11:23:32;;;;;;;20.73;9.63;;;;;;;;;;4920799;29;20032;-85
2022/12/05 11:25:58;;;;;;;18.17;10.18;;;;;;;;;;4903589;29;20779;-86
2022/12/05 11:28:31;;;;;;;12.73;8.00;;;;;;;;;;4921373;29;20040;-88
2022/12/05 11:31:05;;;;;;;9.93;5.53;;;;;;;;;;4920244;29;20044;-86
2022/12/05 11:33:35;;;;;;;9.77;4.75;;;;;;;;;;4902317;29;20040;-87
2022/12/05 11:36:21;;;;;;;7.57;4.60;;;;;;;;;;4901793;29;20042;-86
2022/12/05 11:38:47;;;;;;;12.32;7.05;;;;;;;;;;4920196;29;20032;-86
2022/12/05 11:41:32;;;;;;;8.73;5.07;;;;;;;;;;4895993;29;20024;-85
2022/12/05 11:44:23;;;;;;;12.13;6.15;;;;;;;;;;4895028;29;20056;-86
2022/12/05 11:46:51;;;;;;;8.23;5.30;;;;;;;;;;4895672;29;20413;-85
2022/12/05 11:49:56;;;;;;;9.05;5.65;;;;;;;;;;4895874;29;20087;-86
2022/12/05 11:52:30;;;;;;;7.97;4.97;;;;;;;;;;4909059;29;20045;-86
2022/12/05 11:55:14;;;;;;;7.97;4.88;;;;;;;;;;4891457;29;20044;-86
2022/12/05 11:58:15;;;;;;;9.80;5.10;;;;;;;;;;4889825;29;20491;-86
2022/12/05 12:00:49;;;;;;;9.00;5.30;;;;;;;;;;4914436;29;20043;-86
2022/12/05 12:03:36;;;;;;;7.63;4.57;;;;;;;;;;4916997;29;20064;-86
2022/12/05 12:06:26;;;;;;;10.00;4.72;;;;;;;;;;4916469;29;20091;-85
2022/12/05 12:09:33;;;;;;;34.65;21.77;;;;;;;;;;4916646;29;20044;-86
2022/12/05 12:12:16;;;;;;;16.08;8.38;;;;;;;;;;4896195;29;20052;-84
2022/12/05 12:15:00;;;;;;;8.48;5.35;;;;;;;;;;4918698;29;20498;-84
2022/12/05 12:17:40;;;;;;;16.33;9.63;;;;;;;;;;4919785;29;20068;-84
2022/12/05 12:20:41;;;;;;;10.50;6.15;;;;;;;;;;4918643;29;20060;-85
2022/12/05 12:23:33;;;;;;;12.73;7.97;;;;;;;;;;4916273;29;20534;-84
2022/12/05 12:26:13;;;;;;;7.80;4.22;;;;;;;;;;4901543;29;20067;-85
2022/12/05 12:29:00;;;;;;;4.25;2.75;;;;;;;;;;4919974;29;20055;-84
2022/12/05 12:31:54;;;;;;;4.22;2.90;;;;;;;;;;4919607;29;20036;-84
2022/12/05 12:34:32;;;;;;;3.60;2.40;;;;;;;;;;4919674;29;20032;-84
2022/12/05 12:37:38;;;;;;;4.15;2.40;;;;;;;;;;4903166;29;20043;-84
2022/12/05 12:40:16;;;;;;;8.23;4.38;;;;;;;;;;4909651;29;20137;-85
2022/12/05 12:42:51;;;;;;;4.57;3.03;;;;;;;;;;4934192;29;20176;-84
2022/12/05 12:45:34;;;;;;;12.48;8.30;;;;;;;;;;4902058;29;20060;-83
2022/12/05 12:48:15;;;;;;;;;;;;;;;;;;4923129;29;20047;-83
2022/12/05 12:50:43;;;;;;;6.40;3.63;;;;;;;;;;4906743;29;20002;-85
2022/12/05 12:53:54;;;;;;;3.67;2.40;;;;;;;;;;4927548;29;20032;-85
2022/12/05 12:56:28;;;;;;;5.50;3.08;;;;;;;;;;4930757;29;20119;-85
2022/12/05 12:59:06;;;;;;;51.58;31.05;;;;;;;;;;4904376;29;20088;-87
2022/12/05 13:01:42;;;;;;;5.22;3.10;;;;;;;;;;4921068;29;20036;-87
2022/12/05 13:04:13;;;;;;;7.55;4.82;;;;;;;;;;4944389;23;20051;-81
2022/12/05 13:06:41;;;;;;;10.30;7.13;;;;;;;;;;4912858;29;20032;-80
2022/12/05 13:09:11;;;;;;;11.70;8.15;;;;;;;;;;4928849;29;20052;-83
2022/12/05 13:11:39;;;;;;;7.60;5.55;;;;;;;;;;4926669;29;20051;-82
2022/12/05 13:14:11;;;;;;;7.50;4.32;;;;;;;;;;4925263;29;20044;-83
2022/12/05 13:16:41;;;;;;;3.67;2.58;;;;;;;;;;4925740;29;20066;-81
2022/12/05 13:19:19;;;;;;;5.47;3.47;;;;;;;;;;4926268;29;20068;-81
2022/12/05 13:21:44;;;;;;;4.03;2.80;;;;;;;;;;4926916;29;20059;-82
2022/12/05 13:24:11;;;;;;;4.82;3.15;;;;;;;;;;4926274;29;20504;-81
2022/12/05 13:26:45;;;;;;;5.05;2.92;;;;;;;;;;4926834;29;20035;-84
2022/12/05 13:29:28;;;;;;;6.35;3.45;;;;;;;;;;4925614;29;20044;-80
2022/12/05 13:31:54;;;;;;;5.05;3.20;;;;;;;;;;4927021;29;20036;-81
2022/12/05 13:34:25;;;;;;;5.40;3.20;;;;;;;;;;4909432;29;20024;-81
2022/12/05 13:42:25;;;;;;;6.65;3.85;;;;;;;;;;4926669;29;20040;-83
2022/12/05 13:44:57;;;;;;;5.85;3.63;;;;;;;;;;4926125;29;20390;-81
2022/12/05 13:47:25;;;;;;;5.35;3.13;;;;;;;;;;4925192;29;20082;-81
2022/12/05 13:50:06;;;;;;;4.97;2.67;;;;;;;;;;4922616;29;20111;-84
2022/12/05 13:52:41;;;;;;;3.92;2.50;;;;;;;;;;4905929;29;20087;-84
2022/12/05 13:55:26;;;;;;;5.25;3.33;;;;;;;;;;4922292;29;20040;-83
2022/12/05 13:57:54;;;;;;;4.53;2.50;;;;;;;;;;4905326;29;20037;-84
2022/12/05 14:00:32;;;;;;;4.05;2.38;;;;;;;;;;4922464;29;20035;-83
2022/12/05 14:03:06;;;;;;;3.60;2.50;;;;;;;;;;4905864;29;20032;-83
2022/12/05 14:05:40;;;;;;;6.13;4.07;;;;;;;;;;4904470;29;20405;-82
2022/12/05 14:08:27;;;;;;;5.63;3.80;;;;;;;;;;4907773;29;20067;-83
2022/12/05 14:10:53;;;;;;;5.95;3.35;;;;;;;;;;4906554;29;20059;-82
2022/12/05 14:13:18;;;;;;;4.32;2.65;;;;;;;;;;4925024;29;20020;-83
2022/12/05 14:15:45;;;;;;;6.07;3.75;;;;;;;;;;4923977;29;20163;-84
2022/12/05 14:18:40;;;;;;;5.85;3.40;;;;;;;;;;4923878;29;20047;-84
2022/12/05 14:21:40;;;;;;;5.32;3.45;;;;;;;;;;4923195;29;20032;-82
2022/12/05 14:24:31;;;;;;;6.00;3.65;;;;;;;;;;4923248;29;20052;-83
2022/12/05 14:27:15;;;;;;;8.40;3.25;;;;;;;;;;4923722;29;20040;-83
2022/12/05 14:29:59;;;;;;;4.85;3.10;;;;;;;;;;4907233;29;20040;-82
2022/12/05 14:32:28;;;;;;;;;;;;;;;;;;4907429;29;20060;-80
2022/12/05 14:34:59;;;;;;;4.45;2.70;;;;;;;;;;4925535;29;20009;-83
2022/12/05 14:37:35;;;;;;;8.05;4.20;;;;;;;;;;4924636;29;20063;-82
2022/12/05 14:40:22;;;;;;;8.45;5.07;;;;;;;;;;4924950;29;20095;-83
2022/12/05 14:42:54;;;;;;;8.30;5.82;;;;;;;;;;4924570;29;20032;-81
2022/12/05 14:45:32;;;;;;;10.13;4.68;;;;;;;;;;4908327;29;20087;-82
2022/12/05 14:48:00;;;;;;;13.23;7.05;;;;;;;;;;4925015;29;20056;-84
2022/12/05 14:50:48;;;;;;;5.82;3.80;;;;;;;;;;4925115;29;20036;-82
2022/12/05 14:53:14;;;;;;;8.40;5.75;;;;;;;;;;4925691;29;20474;-84
2022/12/05 14:55:41;;;;;;;8.38;4.70;;;;;;;;;;4925147;29;20024;-82
2022/12/05 14:58:47;;;;;;;8.10;3.67;;;;;;;;;;4909064;29;20036;-81
2022/12/05 15:01:14;;;;;;;7.63;4.00;;;;;;;;;;4877539;29;20140;-84
2022/12/05 15:03:51;;;;;;;5.88;4.05;;;;;;;;;;4926278;29;20051;-81
2022/12/05 15:06:16;;;;;;;6.53;4.15;;;;;;;;;;4925393;29;20040;-81
2022/12/05 15:08:52;;;;;;;4.32;3.20;;;;;;;;;;4925991;29;20365;-83
2022/12/05 15:11:28;;;;;;;51.58;18.30;;;;;;;;;;4924948;29;20051;-84
2022/12/05 15:14:16;;;;;;;66.45;26.27;;;;;;;;;;4926276;29;20116;-84
2022/12/05 15:16:45;;;;;;;6.45;4.15;;;;;;;;;;4924846;29;20036;-81